sensor_id;sensor_type;location;lat;lon;timestamp;P1;durP1;ratioP1;P2;durP2;ratioP2
8913;SDS011;4492;48.736;9.092;2023-02-28T00:00:34;2.57;;;1.70;;
8913;SDS011;4492;48.736;9.092;2023-02-28T00:03:00;2.27;;;1.80;;
8913;SDS011;4492;48.736;9.092;2023-02-28T00:05:27;3.90;;;2.27;;
8913;SDS011;4492;48.736;9.092;2023-02-28T00:07:53;1.93;;;1.50;;
8913;SDS011;4492;48.736;9.092;2023-02-28T00:10:19;3.60;;;2.00;;
8913;SDS011;4492;48.736;9.092;2023-02-28T00:12:48;2.50;;;1.70;;
8913;SDS011;4492;48.736;9.092;2023-02-28T00:15:15;3.93;;;1.70;;
8913;SDS011;4492;48.736;9.092;2023-02-28T00:17:41;2.47;;;1.80;;
8913;SDS011;4492;48.736;9.092;2023-02-28T00:20:07;3.80;;;1.70;;
8913;SDS011;4492;48.736;9.092;2023-02-28T00:22:35;2.90;;;1.63;;
8913;SDS011;4492;48.736;9.092;2023-02-28T00:25:01;1.77;;;1.60;;
8913;SDS011;4492;48.736;9.092;2023-02-28T00:27:27;3.40;;;1.80;;
8913;SDS011;4492;48.736;9.092;2023-02-28T00:29:53;3.27;;;1.70;;
8913;SDS011;4492;48.736;9.092;2023-02-28T00:32:19;2.20;;;1.70;;
8913;SDS011;4492;48.736;9.092;2023-02-28T00:34:44;3.27;;;1.80;;
8913;SDS011;4492;48.736;9.092;2023-02-28T00:37:10;2.63;;;1.93;;
8913;SDS011;4492;48.736;9.092;2023-02-28T00:39:37;2.90;;;1.93;;
8913;SDS011;4492;48.736;9.092;2023-02-28T00:42:03;1.80;;;1.37;;
8913;SDS011;4492;48.736;9.092;2023-02-28T00:44:30;2.23;;;1.67;;
8913;SDS011;4492;48.736;9.092;2023-02-28T00:46:56;2.80;;;1.67;;
8913;SDS011;4492;48.736;9.092;2023-02-28T00:49:22;2.07;;;1.73;;
8913;SDS011;4492;48.736;9.092;2023-02-28T00:51:48;2.60;;;1.67;;
8913;SDS011;4492;48.736;9.092;2023-02-28T00:54:14;4.23;;;1.97;;
8913;SDS011;4492;48.736;9.092;2023-02-28T00:56:40;2.00;;;1.73;;
8913;SDS011;4492;48.736;9.092;2023-02-28T00:59:06;3.67;;;2.00;;
8913;SDS011;4492;48.736;9.092;2023-02-28T01:01:31;3.80;;;1.83;;
8913;SDS011;4492;48.736;9.092;2023-02-28T01:03:57;2.20;;;1.80;;
8913;SDS011;4492;48.736;9.092;2023-02-28T01:06:22;1.90;;;1.63;;
8913;SDS011;4492;48.736;9.092;2023-02-28T01:08:48;2.40;;;2.00;;
8913;SDS011;4492;48.736;9.092;2023-02-28T01:11:14;2.80;;;1.73;;
8913;SDS011;4492;48.736;9.092;2023-02-28T01:13:41;3.37;;;2.03;;
8913;SDS011;4492;48.736;9.092;2023-02-28T01:16:08;2.10;;;1.90;;
8913;SDS011;4492;48.736;9.092;2023-02-28T01:18:33;3.40;;;2.30;;
8913;SDS011;4492;48.736;9.092;2023-02-28T01:21:03;3.83;;;2.10;;
8913;SDS011;4492;48.736;9.092;2023-02-28T01:23:33;2.43;;;2.07;;
8913;SDS011;4492;48.736;9.092;2023-02-28T01:28:40;3.53;;;2.10;;
8913;SDS011;4492;48.736;9.092;2023-02-28T01:31:06;4.13;;;2.67;;
8913;SDS011;4492;48.736;9.092;2023-02-28T01:33:33;4.33;;;2.30;;
8913;SDS011;4492;48.736;9.092;2023-02-28T01:35:59;4.93;;;2.20;;
8913;SDS011;4492;48.736;9.092;2023-02-28T01:38:25;3.67;;;2.20;;
8913;SDS011;4492;48.736;9.092;2023-02-28T01:40:51;4.37;;;2.33;;
8913;SDS011;4492;48.736;9.092;2023-02-28T01:43:30;4.13;;;1.93;;
8913;SDS011;4492;48.736;9.092;2023-02-28T01:45:58;4.23;;;1.97;;
8913;SDS011;4492;48.736;9.092;2023-02-28T01:48:34;3.33;;;2.20;;
8913;SDS011;4492;48.736;9.092;2023-02-28T01:51:03;4.17;;;2.23;;
8913;SDS011;4492;48.736;9.092;2023-02-28T01:53:36;3.50;;;2.27;;
8913;SDS011;4492;48.736;9.092;2023-02-28T01:56:06;6.47;;;2.30;;
8913;SDS011;4492;48.736;9.092;2023-02-28T01:58:34;3.83;;;2.30;;
8913;SDS011;4492;48.736;9.092;2023-02-28T02:01:00;4.90;;;2.30;;
8913;SDS011;4492;48.736;9.092;2023-02-28T02:03:27;3.50;;;2.27;;
8913;SDS011;4492;48.736;9.092;2023-02-28T02:05:54;5.10;;;2.90;;
8913;SDS011;4492;48.736;9.092;2023-02-28T02:08:21;4.40;;;2.47;;
8913;SDS011;4492;48.736;9.092;2023-02-28T02:10:52;4.53;;;2.87;;
8913;SDS011;4492;48.736;9.092;2023-02-28T02:16:04;4.10;;;2.30;;
8913;SDS011;4492;48.736;9.092;2023-02-28T02:27:05;3.23;;;2.13;;
8913;SDS011;4492;48.736;9.092;2023-02-28T02:30:06;4.17;;;2.60;;
8913;SDS011;4492;48.736;9.092;2023-02-28T02:33:10;5.43;;;2.73;;
8913;SDS011;4492;48.736;9.092;2023-02-28T02:35:55;4.27;;;2.73;;
8913;SDS011;4492;48.736;9.092;2023-02-28T02:38:42;4.37;;;2.87;;
8913;SDS011;4492;48.736;9.092;2023-02-28T02:41:40;5.43;;;2.47;;
8913;SDS011;4492;48.736;9.092;2023-02-28T02:44:24;4.77;;;2.50;;
8913;SDS011;4492;48.736;9.092;2023-02-28T02:46:51;3.80;;;2.83;;
8913;SDS011;4492;48.736;9.092;2023-02-28T02:49:31;3.73;;;2.87;;
8913;SDS011;4492;48.736;9.092;2023-02-28T02:51:58;4.60;;;3.10;;
8913;SDS011;4492;48.736;9.092;2023-02-28T02:54:32;4.80;;;2.90;;
8913;SDS011;4492;48.736;9.092;2023-02-28T02:57:03;4.37;;;3.00;;
8913;SDS011;4492;48.736;9.092;2023-02-28T02:59:33;3.00;;;2.70;;
8913;SDS011;4492;48.736;9.092;2023-02-28T03:02:04;4.67;;;3.00;;
8913;SDS011;4492;48.736;9.092;2023-02-28T03:04:34;4.73;;;3.07;;
8913;SDS011;4492;48.736;9.092;2023-02-28T03:07:05;4.43;;;2.90;;
8913;SDS011;4492;48.736;9.092;2023-02-28T03:09:32;5.70;;;3.20;;
8913;SDS011;4492;48.736;9.092;2023-02-28T03:12:00;4.37;;;3.57;;
8913;SDS011;4492;48.736;9.092;2023-02-28T03:14:30;5.33;;;3.13;;
8913;SDS011;4492;48.736;9.092;2023-02-28T03:25:21;4.90;;;3.10;;
8913;SDS011;4492;48.736;9.092;2023-02-28T03:28:15;4.70;;;3.10;;
8913;SDS011;4492;48.736;9.092;2023-02-28T03:31:10;4.40;;;2.80;;
8913;SDS011;4492;48.736;9.092;2023-02-28T03:33:42;5.83;;;3.10;;
8913;SDS011;4492;48.736;9.092;2023-02-28T03:36:20;4.60;;;3.40;;
8913;SDS011;4492;48.736;9.092;2023-02-28T03:39:09;6.13;;;3.57;;
8913;SDS011;4492;48.736;9.092;2023-02-28T03:41:47;4.80;;;3.13;;
8913;SDS011;4492;48.736;9.092;2023-02-28T03:44:19;5.93;;;3.27;;
8913;SDS011;4492;48.736;9.092;2023-02-28T03:46:57;3.27;;;2.90;;
8913;SDS011;4492;48.736;9.092;2023-02-28T03:49:32;5.23;;;3.20;;
8913;SDS011;4492;48.736;9.092;2023-02-28T03:52:02;5.07;;;3.30;;
8913;SDS011;4492;48.736;9.092;2023-02-28T03:54:32;4.90;;;3.20;;
8913;SDS011;4492;48.736;9.092;2023-02-28T03:57:04;5.47;;;3.60;;
8913;SDS011;4492;48.736;9.092;2023-02-28T03:59:53;4.93;;;3.47;;
8913;SDS011;4492;48.736;9.092;2023-02-28T04:02:24;5.17;;;3.60;;
8913;SDS011;4492;48.736;9.092;2023-02-28T04:04:50;5.90;;;3.60;;
8913;SDS011;4492;48.736;9.092;2023-02-28T04:07:16;6.97;;;3.33;;
8913;SDS011;4492;48.736;9.092;2023-02-28T04:09:42;6.27;;;3.83;;
8913;SDS011;4492;48.736;9.092;2023-02-28T04:12:08;6.73;;;3.40;;
8913;SDS011;4492;48.736;9.092;2023-02-28T04:14:33;6.90;;;3.80;;
8913;SDS011;4492;48.736;9.092;2023-02-28T04:16:59;7.03;;;3.47;;
8913;SDS011;4492;48.736;9.092;2023-02-28T04:19:24;6.13;;;3.87;;
8913;SDS011;4492;48.736;9.092;2023-02-28T04:21:51;4.87;;;3.70;;
8913;SDS011;4492;48.736;9.092;2023-02-28T04:24:24;5.43;;;3.50;;
8913;SDS011;4492;48.736;9.092;2023-02-28T04:26:52;5.80;;;3.57;;
8913;SDS011;4492;48.736;9.092;2023-02-28T04:29:23;7.43;;;3.60;;
8913;SDS011;4492;48.736;9.092;2023-02-28T04:31:51;6.40;;;3.90;;
8913;SDS011;4492;48.736;9.092;2023-02-28T04:34:24;5.77;;;4.00;;
8913;SDS011;4492;48.736;9.092;2023-02-28T04:36:50;5.60;;;3.77;;
8913;SDS011;4492;48.736;9.092;2023-02-28T04:39:19;5.73;;;3.80;;
8913;SDS011;4492;48.736;9.092;2023-02-28T04:41:45;5.77;;;3.77;;
8913;SDS011;4492;48.736;9.092;2023-02-28T04:44:11;6.93;;;3.70;;
8913;SDS011;4492;48.736;9.092;2023-02-28T04:46:37;6.57;;;4.20;;
8913;SDS011;4492;48.736;9.092;2023-02-28T04:49:03;6.83;;;4.30;;
8913;SDS011;4492;48.736;9.092;2023-02-28T04:51:28;5.60;;;3.57;;
8913;SDS011;4492;48.736;9.092;2023-02-28T04:53:54;6.70;;;4.07;;
8913;SDS011;4492;48.736;9.092;2023-02-28T04:56:20;4.77;;;3.83;;
8913;SDS011;4492;48.736;9.092;2023-02-28T04:58:45;7.23;;;4.03;;
8913;SDS011;4492;48.736;9.092;2023-02-28T05:01:16;5.83;;;4.00;;
8913;SDS011;4492;48.736;9.092;2023-02-28T05:03:45;6.03;;;3.63;;
8913;SDS011;4492;48.736;9.092;2023-02-28T05:06:11;10.13;;;4.23;;
8913;SDS011;4492;48.736;9.092;2023-02-28T05:08:38;4.87;;;3.50;;
8913;SDS011;4492;48.736;9.092;2023-02-28T05:11:04;4.57;;;3.57;;
8913;SDS011;4492;48.736;9.092;2023-02-28T05:13:31;5.87;;;3.83;;
8913;SDS011;4492;48.736;9.092;2023-02-28T05:15:57;5.07;;;3.70;;
8913;SDS011;4492;48.736;9.092;2023-02-28T05:18:22;6.40;;;3.70;;
8913;SDS011;4492;48.736;9.092;2023-02-28T05:20:48;6.70;;;4.00;;
8913;SDS011;4492;48.736;9.092;2023-02-28T05:23:14;7.17;;;4.20;;
8913;SDS011;4492;48.736;9.092;2023-02-28T05:25:41;8.37;;;4.43;;
8913;SDS011;4492;48.736;9.092;2023-02-28T05:28:07;7.60;;;4.27;;
8913;SDS011;4492;48.736;9.092;2023-02-28T05:30:32;6.63;;;3.97;;
8913;SDS011;4492;48.736;9.092;2023-02-28T05:32:58;6.03;;;4.30;;
8913;SDS011;4492;48.736;9.092;2023-02-28T05:35:24;6.30;;;4.10;;
8913;SDS011;4492;48.736;9.092;2023-02-28T05:37:50;5.47;;;3.93;;
8913;SDS011;4492;48.736;9.092;2023-02-28T05:40:16;5.80;;;4.10;;
8913;SDS011;4492;48.736;9.092;2023-02-28T05:42:42;9.83;;;4.83;;
8913;SDS011;4492;48.736;9.092;2023-02-28T05:45:08;7.23;;;4.47;;
8913;SDS011;4492;48.736;9.092;2023-02-28T05:47:34;6.10;;;4.47;;
8913;SDS011;4492;48.736;9.092;2023-02-28T05:50:00;7.30;;;4.40;;
8913;SDS011;4492;48.736;9.092;2023-02-28T05:52:26;7.47;;;4.17;;
8913;SDS011;4492;48.736;9.092;2023-02-28T05:54:52;6.70;;;4.50;;
8913;SDS011;4492;48.736;9.092;2023-02-28T05:57:18;8.57;;;4.60;;
8913;SDS011;4492;48.736;9.092;2023-02-28T05:59:43;8.37;;;5.03;;
8913;SDS011;4492;48.736;9.092;2023-02-28T06:02:10;6.10;;;4.23;;
8913;SDS011;4492;48.736;9.092;2023-02-28T06:04:38;7.23;;;4.83;;
8913;SDS011;4492;48.736;9.092;2023-02-28T06:07:05;8.13;;;4.70;;
8913;SDS011;4492;48.736;9.092;2023-02-28T06:09:32;7.50;;;4.57;;
8913;SDS011;4492;48.736;9.092;2023-02-28T06:11:58;9.50;;;4.47;;
8913;SDS011;4492;48.736;9.092;2023-02-28T06:14:27;7.10;;;4.43;;
8913;SDS011;4492;48.736;9.092;2023-02-28T06:16:53;6.67;;;4.57;;
8913;SDS011;4492;48.736;9.092;2023-02-28T06:19:18;6.83;;;4.70;;
8913;SDS011;4492;48.736;9.092;2023-02-28T06:21:44;8.27;;;5.03;;
8913;SDS011;4492;48.736;9.092;2023-02-28T06:24:10;9.50;;;5.20;;
8913;SDS011;4492;48.736;9.092;2023-02-28T06:26:35;10.03;;;5.57;;
8913;SDS011;4492;48.736;9.092;2023-02-28T06:29:01;8.30;;;5.47;;
8913;SDS011;4492;48.736;9.092;2023-02-28T06:31:28;11.87;;;5.73;;
8913;SDS011;4492;48.736;9.092;2023-02-28T06:33:54;11.00;;;6.10;;
8913;SDS011;4492;48.736;9.092;2023-02-28T06:36:20;6.40;;;5.23;;
8913;SDS011;4492;48.736;9.092;2023-02-28T06:38:46;10.93;;;5.40;;
8913;SDS011;4492;48.736;9.092;2023-02-28T06:41:16;7.87;;;4.70;;
8913;SDS011;4492;48.736;9.092;2023-02-28T06:43:42;9.87;;;5.23;;
8913;SDS011;4492;48.736;9.092;2023-02-28T06:46:10;7.80;;;5.27;;
8913;SDS011;4492;48.736;9.092;2023-02-28T06:48:38;9.37;;;5.07;;
8913;SDS011;4492;48.736;9.092;2023-02-28T06:51:05;11.47;;;5.37;;
8913;SDS011;4492;48.736;9.092;2023-02-28T06:53:33;9.03;;;5.20;;
8913;SDS011;4492;48.736;9.092;2023-02-28T06:55:59;9.20;;;5.37;;
8913;SDS011;4492;48.736;9.092;2023-02-28T06:58:28;7.73;;;4.90;;
8913;SDS011;4492;48.736;9.092;2023-02-28T07:00:54;9.03;;;5.60;;
8913;SDS011;4492;48.736;9.092;2023-02-28T07:03:19;8.90;;;5.00;;
8913;SDS011;4492;48.736;9.092;2023-02-28T07:05:45;11.67;;;6.23;;
8913;SDS011;4492;48.736;9.092;2023-02-28T07:08:11;11.33;;;5.80;;
8913;SDS011;4492;48.736;9.092;2023-02-28T07:10:37;10.93;;;6.20;;
8913;SDS011;4492;48.736;9.092;2023-02-28T07:13:03;10.03;;;5.63;;
8913;SDS011;4492;48.736;9.092;2023-02-28T07:15:29;9.30;;;5.57;;
8913;SDS011;4492;48.736;9.092;2023-02-28T07:17:55;9.23;;;6.10;;
8913;SDS011;4492;48.736;9.092;2023-02-28T07:20:21;9.23;;;4.90;;
8913;SDS011;4492;48.736;9.092;2023-02-28T07:22:48;8.90;;;5.30;;
8913;SDS011;4492;48.736;9.092;2023-02-28T07:25:20;10.00;;;5.23;;
8913;SDS011;4492;48.736;9.092;2023-02-28T07:27:46;10.43;;;5.40;;
8913;SDS011;4492;48.736;9.092;2023-02-28T07:30:12;10.93;;;5.20;;
8913;SDS011;4492;48.736;9.092;2023-02-28T07:32:37;8.20;;;5.40;;
8913;SDS011;4492;48.736;9.092;2023-02-28T07:35:04;13.57;;;5.77;;
8913;SDS011;4492;48.736;9.092;2023-02-28T07:37:30;10.93;;;6.17;;
8913;SDS011;4492;48.736;9.092;2023-02-28T07:39:56;8.83;;;5.67;;
8913;SDS011;4492;48.736;9.092;2023-02-28T07:42:22;11.80;;;5.93;;
8913;SDS011;4492;48.736;9.092;2023-02-28T07:44:47;11.33;;;5.90;;
8913;SDS011;4492;48.736;9.092;2023-02-28T07:47:13;10.07;;;5.97;;
8913;SDS011;4492;48.736;9.092;2023-02-28T07:49:39;8.87;;;5.87;;
8913;SDS011;4492;48.736;9.092;2023-02-28T07:52:04;9.17;;;5.90;;
8913;SDS011;4492;48.736;9.092;2023-02-28T07:54:32;11.27;;;5.80;;
8913;SDS011;4492;48.736;9.092;2023-02-28T07:56:57;9.37;;;6.10;;
8913;SDS011;4492;48.736;9.092;2023-02-28T07:59:23;12.07;;;6.37;;
8913;SDS011;4492;48.736;9.092;2023-02-28T08:01:49;9.73;;;6.23;;
8913;SDS011;4492;48.736;9.092;2023-02-28T08:04:16;9.73;;;5.70;;
8913;SDS011;4492;48.736;9.092;2023-02-28T08:06:42;10.00;;;5.73;;
8913;SDS011;4492;48.736;9.092;2023-02-28T08:09:07;10.30;;;5.90;;
8913;SDS011;4492;48.736;9.092;2023-02-28T08:11:33;10.93;;;5.90;;
8913;SDS011;4492;48.736;9.092;2023-02-28T08:13:59;10.53;;;6.03;;
8913;SDS011;4492;48.736;9.092;2023-02-28T08:16:24;10.77;;;6.33;;
8913;SDS011;4492;48.736;9.092;2023-02-28T08:18:53;9.10;;;5.70;;
8913;SDS011;4492;48.736;9.092;2023-02-28T08:21:19;11.63;;;6.57;;
8913;SDS011;4492;48.736;9.092;2023-02-28T08:23:49;10.67;;;6.27;;
8913;SDS011;4492;48.736;9.092;2023-02-28T08:26:16;9.50;;;6.20;;
8913;SDS011;4492;48.736;9.092;2023-02-28T08:28:42;9.73;;;6.40;;
8913;SDS011;4492;48.736;9.092;2023-02-28T08:31:09;9.90;;;5.87;;
8913;SDS011;4492;48.736;9.092;2023-02-28T08:33:36;11.50;;;6.60;;
8913;SDS011;4492;48.736;9.092;2023-02-28T08:36:04;9.80;;;6.00;;
8913;SDS011;4492;48.736;9.092;2023-02-28T08:38:30;9.67;;;6.13;;
8913;SDS011;4492;48.736;9.092;2023-02-28T08:41:00;10.50;;;6.17;;
8913;SDS011;4492;48.736;9.092;2023-02-28T08:43:27;11.23;;;6.60;;
8913;SDS011;4492;48.736;9.092;2023-02-28T08:45:54;11.20;;;6.80;;
8913;SDS011;4492;48.736;9.092;2023-02-28T08:48:22;11.30;;;6.30;;
8913;SDS011;4492;48.736;9.092;2023-02-28T08:50:58;11.40;;;6.20;;
8913;SDS011;4492;48.736;9.092;2023-02-28T08:53:25;11.43;;;6.10;;
8913;SDS011;4492;48.736;9.092;2023-02-28T08:55:58;9.17;;;5.97;;
8913;SDS011;4492;48.736;9.092;2023-02-28T08:58:24;12.17;;;6.77;;
8913;SDS011;4492;48.736;9.092;2023-02-28T09:00:50;10.07;;;5.73;;
8913;SDS011;4492;48.736;9.092;2023-02-28T09:03:16;8.80;;;6.13;;
8913;SDS011;4492;48.736;9.092;2023-02-28T09:05:51;10.97;;;6.60;;
8913;SDS011;4492;48.736;9.092;2023-02-28T09:08:20;9.43;;;6.30;;
8913;SDS011;4492;48.736;9.092;2023-02-28T09:10:46;10.80;;;6.60;;
8913;SDS011;4492;48.736;9.092;2023-02-28T09:13:12;11.80;;;6.30;;
8913;SDS011;4492;48.736;9.092;2023-02-28T09:15:38;12.63;;;6.07;;
8913;SDS011;4492;48.736;9.092;2023-02-28T09:18:04;11.67;;;6.40;;
8913;SDS011;4492;48.736;9.092;2023-02-28T09:20:29;10.63;;;6.27;;
8913;SDS011;4492;48.736;9.092;2023-02-28T09:22:55;11.40;;;6.93;;
8913;SDS011;4492;48.736;9.092;2023-02-28T09:25:20;10.93;;;6.67;;
8913;SDS011;4492;48.736;9.092;2023-02-28T09:27:46;9.77;;;6.00;;
8913;SDS011;4492;48.736;9.092;2023-02-28T09:30:12;11.00;;;6.30;;
8913;SDS011;4492;48.736;9.092;2023-02-28T09:32:38;10.97;;;6.67;;
8913;SDS011;4492;48.736;9.092;2023-02-28T09:35:03;10.93;;;6.77;;
8913;SDS011;4492;48.736;9.092;2023-02-28T09:37:30;9.73;;;6.20;;
8913;SDS011;4492;48.736;9.092;2023-02-28T09:39:56;11.47;;;7.07;;
8913;SDS011;4492;48.736;9.092;2023-02-28T09:42:24;17.63;;;7.17;;
8913;SDS011;4492;48.736;9.092;2023-02-28T09:44:55;10.50;;;6.27;;
8913;SDS011;4492;48.736;9.092;2023-02-28T09:47:36;10.67;;;6.27;;
8913;SDS011;4492;48.736;9.092;2023-02-28T09:52:59;13.57;;;7.13;;
8913;SDS011;4492;48.736;9.092;2023-02-28T09:55:38;9.83;;;6.23;;
8913;SDS011;4492;48.736;9.092;2023-02-28T09:58:15;11.47;;;6.33;;
8913;SDS011;4492;48.736;9.092;2023-02-28T10:00:47;12.53;;;6.13;;
8913;SDS011;4492;48.736;9.092;2023-02-28T10:03:29;13.60;;;6.57;;
8913;SDS011;4492;48.736;9.092;2023-02-28T10:08:40;11.00;;;7.00;;
8913;SDS011;4492;48.736;9.092;2023-02-28T10:11:23;10.80;;;6.70;;
8913;SDS011;4492;48.736;9.092;2023-02-28T10:13:58;10.43;;;6.63;;
8913;SDS011;4492;48.736;9.092;2023-02-28T10:16:34;10.43;;;7.07;;
8913;SDS011;4492;48.736;9.092;2023-02-28T10:21:46;8.97;;;5.73;;
8913;SDS011;4492;48.736;9.092;2023-02-28T10:24:23;9.70;;;6.83;;
8913;SDS011;4492;48.736;9.092;2023-02-28T10:27:10;10.83;;;6.27;;
8913;SDS011;4492;48.736;9.092;2023-02-28T10:29:43;11.67;;;7.53;;
8913;SDS011;4492;48.736;9.092;2023-02-28T10:32:11;12.33;;;7.03;;
8913;SDS011;4492;48.736;9.092;2023-02-28T10:34:40;12.50;;;7.70;;
8913;SDS011;4492;48.736;9.092;2023-02-28T10:37:06;11.77;;;6.53;;
8913;SDS011;4492;48.736;9.092;2023-02-28T10:42:03;9.43;;;6.17;;
8913;SDS011;4492;48.736;9.092;2023-02-28T10:44:30;9.63;;;6.57;;
8913;SDS011;4492;48.736;9.092;2023-02-28T10:46:55;15.00;;;7.83;;
8913;SDS011;4492;48.736;9.092;2023-02-28T10:49:23;11.07;;;7.30;;
8913;SDS011;4492;48.736;9.092;2023-02-28T10:51:54;13.10;;;6.97;;
8913;SDS011;4492;48.736;9.092;2023-02-28T10:54:33;12.97;;;6.97;;
8913;SDS011;4492;48.736;9.092;2023-02-28T10:57:08;12.20;;;7.23;;
8913;SDS011;4492;48.736;9.092;2023-02-28T10:59:42;13.90;;;6.43;;
8913;SDS011;4492;48.736;9.092;2023-02-28T11:07:59;7.53;;;6.20;;
8913;SDS011;4492;48.736;9.092;2023-02-28T11:10:31;13.07;;;6.93;;
8913;SDS011;4492;48.736;9.092;2023-02-28T11:12:59;11.27;;;7.07;;
8913;SDS011;4492;48.736;9.092;2023-02-28T11:15:27;10.13;;;6.63;;
8913;SDS011;4492;48.736;9.092;2023-02-28T11:17:56;10.83;;;7.17;;
8913;SDS011;4492;48.736;9.092;2023-02-28T11:20:25;12.20;;;7.20;;
8913;SDS011;4492;48.736;9.092;2023-02-28T11:22:54;14.10;;;6.27;;
8913;SDS011;4492;48.736;9.092;2023-02-28T11:25:23;11.80;;;7.13;;
8913;SDS011;4492;48.736;9.092;2023-02-28T11:27:52;9.87;;;6.60;;
8913;SDS011;4492;48.736;9.092;2023-02-28T11:30:28;11.97;;;7.47;;
8913;SDS011;4492;48.736;9.092;2023-02-28T11:33:18;12.13;;;7.47;;
8913;SDS011;4492;48.736;9.092;2023-02-28T11:35:45;11.40;;;7.07;;
8913;SDS011;4492;48.736;9.092;2023-02-28T11:38:14;11.30;;;7.23;;
8913;SDS011;4492;48.736;9.092;2023-02-28T11:43:27;10.50;;;6.60;;
8913;SDS011;4492;48.736;9.092;2023-02-28T11:49:13;13.47;;;7.07;;
8913;SDS011;4492;48.736;9.092;2023-02-28T11:51:46;13.33;;;6.90;;
8913;SDS011;4492;48.736;9.092;2023-02-28T11:54:28;10.57;;;6.50;;
8913;SDS011;4492;48.736;9.092;2023-02-28T11:57:08;13.33;;;6.83;;
8913;SDS011;4492;48.736;9.092;2023-02-28T12:03:11;9.57;;;6.70;;
8913;SDS011;4492;48.736;9.092;2023-02-28T12:08:55;9.37;;;6.83;;
8913;SDS011;4492;48.736;9.092;2023-02-28T12:11:44;11.60;;;6.83;;
8913;SDS011;4492;48.736;9.092;2023-02-28T12:14:25;8.97;;;6.20;;
8913;SDS011;4492;48.736;9.092;2023-02-28T12:17:01;12.80;;;7.63;;
8913;SDS011;4492;48.736;9.092;2023-02-28T12:22:30;10.20;;;7.27;;
8913;SDS011;4492;48.736;9.092;2023-02-28T12:27:33;10.27;;;6.60;;
8913;SDS011;4492;48.736;9.092;2023-02-28T12:30:06;11.80;;;7.13;;
8913;SDS011;4492;48.736;9.092;2023-02-28T12:32:42;10.67;;;7.10;;
8913;SDS011;4492;48.736;9.092;2023-02-28T12:35:16;12.50;;;6.93;;
8913;SDS011;4492;48.736;9.092;2023-02-28T12:37:48;10.73;;;7.07;;
8913;SDS011;4492;48.736;9.092;2023-02-28T12:40:21;13.00;;;6.60;;
8913;SDS011;4492;48.736;9.092;2023-02-28T12:43:04;9.77;;;6.87;;
8913;SDS011;4492;48.736;9.092;2023-02-28T12:48:27;10.40;;;6.30;;
8913;SDS011;4492;48.736;9.092;2023-02-28T12:50:54;10.77;;;7.00;;
8913;SDS011;4492;48.736;9.092;2023-02-28T12:55:52;10.77;;;7.17;;
8913;SDS011;4492;48.736;9.092;2023-02-28T12:58:36;9.63;;;6.77;;
8913;SDS011;4492;48.736;9.092;2023-02-28T13:03:49;9.87;;;6.87;;
8913;SDS011;4492;48.736;9.092;2023-02-28T13:06:28;10.00;;;7.30;;
8913;SDS011;4492;48.736;9.092;2023-02-28T13:09:10;11.27;;;7.10;;
8913;SDS011;4492;48.736;9.092;2023-02-28T13:11:39;11.37;;;8.67;;
8913;SDS011;4492;48.736;9.092;2023-02-28T13:14:23;10.70;;;7.00;;
8913;SDS011;4492;48.736;9.092;2023-02-28T13:19:35;10.80;;;7.07;;
8913;SDS011;4492;48.736;9.092;2023-02-28T13:22:20;10.80;;;7.00;;
8913;SDS011;4492;48.736;9.092;2023-02-28T13:25:49;13.80;;;7.10;;
8913;SDS011;4492;48.736;9.092;2023-02-28T13:28:13;10.10;;;7.53;;
8913;SDS011;4492;48.736;9.092;2023-02-28T13:31:13;10.43;;;6.67;;
8913;SDS011;4492;48.736;9.092;2023-02-28T13:38:43;9.30;;;6.70;;
8913;SDS011;4492;48.736;9.092;2023-02-28T13:44:07;9.17;;;6.77;;
8913;SDS011;4492;48.736;9.092;2023-02-28T13:46:36;9.83;;;6.97;;
8913;SDS011;4492;48.736;9.092;2023-02-28T13:57:06;12.60;;;7.63;;
8913;SDS011;4492;48.736;9.092;2023-02-28T14:03:03;11.57;;;7.37;;
8913;SDS011;4492;48.736;9.092;2023-02-28T14:05:34;9.50;;;6.47;;
8913;SDS011;4492;48.736;9.092;2023-02-28T14:08:05;8.93;;;6.43;;
8913;SDS011;4492;48.736;9.092;2023-02-28T14:10:46;13.33;;;6.93;;
8913;SDS011;4492;48.736;9.092;2023-02-28T14:13:37;11.67;;;7.53;;
8913;SDS011;4492;48.736;9.092;2023-02-28T14:16:09;10.47;;;6.83;;
8913;SDS011;4492;48.736;9.092;2023-02-28T14:18:38;12.67;;;7.50;;
8913;SDS011;4492;48.736;9.092;2023-02-28T14:21:09;10.93;;;6.93;;
8913;SDS011;4492;48.736;9.092;2023-02-28T14:32:33;10.00;;;7.03;;
8913;SDS011;4492;48.736;9.092;2023-02-28T14:38:28;10.23;;;6.83;;
8913;SDS011;4492;48.736;9.092;2023-02-28T14:41:03;11.40;;;6.83;;
8913;SDS011;4492;48.736;9.092;2023-02-28T14:43:36;11.37;;;7.03;;
8913;SDS011;4492;48.736;9.092;2023-02-28T14:46:12;11.30;;;6.93;;
8913;SDS011;4492;48.736;9.092;2023-02-28T14:48:38;11.73;;;7.00;;
8913;SDS011;4492;48.736;9.092;2023-02-28T14:51:04;9.73;;;6.63;;
8913;SDS011;4492;48.736;9.092;2023-02-28T14:53:34;10.70;;;6.97;;
8913;SDS011;4492;48.736;9.092;2023-02-28T14:56:01;11.67;;;6.93;;
8913;SDS011;4492;48.736;9.092;2023-02-28T14:58:27;11.10;;;6.80;;
8913;SDS011;4492;48.736;9.092;2023-02-28T15:00:56;13.57;;;6.97;;
8913;SDS011;4492;48.736;9.092;2023-02-28T15:03:30;21.60;;;11.03;;
8913;SDS011;4492;48.736;9.092;2023-02-28T15:06:04;11.60;;;7.07;;
8913;SDS011;4492;48.736;9.092;2023-02-28T15:08:37;11.27;;;6.97;;
8913;SDS011;4492;48.736;9.092;2023-02-28T15:11:04;9.73;;;6.40;;
8913;SDS011;4492;48.736;9.092;2023-02-28T15:16:04;8.93;;;6.60;;
8913;SDS011;4492;48.736;9.092;2023-02-28T15:21:36;8.87;;;6.63;;
8913;SDS011;4492;48.736;9.092;2023-02-28T15:24:05;11.63;;;7.27;;
8913;SDS011;4492;48.736;9.092;2023-02-28T15:26:42;12.03;;;6.80;;
8913;SDS011;4492;48.736;9.092;2023-02-28T15:29:15;10.50;;;7.07;;
8913;SDS011;4492;48.736;9.092;2023-02-28T15:32:05;8.80;;;6.50;;
8913;SDS011;4492;48.736;9.092;2023-02-28T15:34:39;11.07;;;6.80;;
8913;SDS011;4492;48.736;9.092;2023-02-28T15:39:52;11.20;;;6.83;;
8913;SDS011;4492;48.736;9.092;2023-02-28T15:42:20;13.00;;;6.70;;
8913;SDS011;4492;48.736;9.092;2023-02-28T15:44:47;9.70;;;6.37;;
8913;SDS011;4492;48.736;9.092;2023-02-28T15:49:51;10.80;;;6.93;;
8913;SDS011;4492;48.736;9.092;2023-02-28T15:52:21;12.33;;;7.33;;
8913;SDS011;4492;48.736;9.092;2023-02-28T15:54:52;8.33;;;6.40;;
8913;SDS011;4492;48.736;9.092;2023-02-28T15:57:22;10.33;;;6.97;;
8913;SDS011;4492;48.736;9.092;2023-02-28T15:59:56;9.57;;;6.97;;
8913;SDS011;4492;48.736;9.092;2023-02-28T16:02:36;11.30;;;6.87;;
8913;SDS011;4492;48.736;9.092;2023-02-28T16:07:31;10.37;;;6.80;;
8913;SDS011;4492;48.736;9.092;2023-02-28T16:09:56;11.07;;;7.17;;
8913;SDS011;4492;48.736;9.092;2023-02-28T16:12:25;10.33;;;6.50;;
8913;SDS011;4492;48.736;9.092;2023-02-28T16:14:52;10.53;;;6.97;;
8913;SDS011;4492;48.736;9.092;2023-02-28T16:17:26;11.47;;;7.13;;
8913;SDS011;4492;48.736;9.092;2023-02-28T16:19:54;11.07;;;7.30;;
8913;SDS011;4492;48.736;9.092;2023-02-28T16:22:20;11.30;;;6.77;;
8913;SDS011;4492;48.736;9.092;2023-02-28T16:24:46;10.53;;;7.10;;
8913;SDS011;4492;48.736;9.092;2023-02-28T16:27:20;9.63;;;6.63;;
8913;SDS011;4492;48.736;9.092;2023-02-28T16:29:51;10.43;;;7.10;;
8913;SDS011;4492;48.736;9.092;2023-02-28T16:32:18;10.13;;;7.30;;
8913;SDS011;4492;48.736;9.092;2023-02-28T16:34:43;10.53;;;7.10;;
8913;SDS011;4492;48.736;9.092;2023-02-28T16:37:11;12.43;;;7.13;;
8913;SDS011;4492;48.736;9.092;2023-02-28T16:39:38;9.70;;;7.10;;
8913;SDS011;4492;48.736;9.092;2023-02-28T16:42:04;14.07;;;7.60;;
8913;SDS011;4492;48.736;9.092;2023-02-28T16:44:31;12.00;;;7.93;;
8913;SDS011;4492;48.736;9.092;2023-02-28T16:46:59;10.37;;;7.20;;
8913;SDS011;4492;48.736;9.092;2023-02-28T16:49:25;11.87;;;7.87;;
8913;SDS011;4492;48.736;9.092;2023-02-28T16:51:50;11.67;;;7.30;;
8913;SDS011;4492;48.736;9.092;2023-02-28T16:54:16;10.13;;;7.07;;
8913;SDS011;4492;48.736;9.092;2023-02-28T16:56:43;12.83;;;7.13;;
8913;SDS011;4492;48.736;9.092;2023-02-28T16:59:10;12.73;;;7.33;;
8913;SDS011;4492;48.736;9.092;2023-02-28T17:01:37;13.23;;;7.63;;
8913;SDS011;4492;48.736;9.092;2023-02-28T17:04:02;13.87;;;7.80;;
8913;SDS011;4492;48.736;9.092;2023-02-28T17:06:28;11.83;;;7.27;;
8913;SDS011;4492;48.736;9.092;2023-02-28T17:08:55;10.30;;;7.40;;
8913;SDS011;4492;48.736;9.092;2023-02-28T17:11:22;12.37;;;7.43;;
8913;SDS011;4492;48.736;9.092;2023-02-28T17:13:48;14.53;;;7.73;;
8913;SDS011;4492;48.736;9.092;2023-02-28T17:16:22;13.60;;;7.83;;
8913;SDS011;4492;48.736;9.092;2023-02-28T17:19:03;10.77;;;6.73;;